Time;durP1;ratioP1;P1;durP2;ratioP2;P2;SDS_P1;SDS_P2;PMS_P1;PMS_P2;Temp;Humidity;BMP_temperature;BMP_pressure;BME280_temperature;BME280_humidity;BME280_pressure;Samples;Min_cycle;Max_cycle;Signal;HPM_P1;HPM_P2
2023/11/11 00:01:42;;;;;;;1.17;0.65;;;;;;;;;;5041045;28;20393;-82
2023/11/11 00:04:08;;;;;;;1.67;0.80;;;;;;;;;;5043000;28;20383;-82
2023/11/11 00:06:34;;;;;;;2.05;0.63;;;;;;;;;;5043117;28;20394;-81
2023/11/11 00:09:00;;;;;;;1.85;0.75;;;;;;;;;;5043579;28;20391;-82
2023/11/11 00:11:26;;;;;;;1.10;0.60;;;;;;;;;;5052562;28;20399;-82
2023/11/11 00:13:52;;;;;;;1.33;0.57;;;;;;;;;;5042548;28;20436;-82
2023/11/11 00:16:21;;;;;;;1.75;0.70;;;;;;;;;;5041565;28;20422;-81
2023/11/11 00:18:48;;;;;;;1.10;0.60;;;;;;;;;;5041568;28;20408;-82
2023/11/11 00:21:14;;;;;;;0.95;0.70;;;;;;;;;;5042677;28;20406;-82
2023/11/11 00:23:40;;;;;;;0.73;0.70;;;;;;;;;;5042881;28;20562;-82
2023/11/11 00:26:06;;;;;;;1.92;0.98;;;;;;;;;;5024710;28;20908;-82
2023/11/11 00:28:32;;;;;;;3.05;1.20;;;;;;;;;;5043274;28;20419;-82
2023/11/11 00:30:59;;;;;;;1.60;0.88;;;;;;;;;;5042472;28;20399;-82
2023/11/11 00:33:25;;;;;;;3.17;1.10;;;;;;;;;;5042268;28;20395;-82
2023/11/11 00:35:51;;;;;;;0.80;0.52;;;;;;;;;;5022452;28;20978;-82
2023/11/11 00:38:17;;;;;;;1.17;0.45;;;;;;;;;;5023193;28;20485;-82
2023/11/11 00:40:43;;;;;;;0.60;0.43;;;;;;;;;;5043188;28;20405;-81
2023/11/11 00:43:10;;;;;;;0.60;0.60;;;;;;;;;;5043685;28;20391;-82
2023/11/11 00:45:36;;;;;;;1.13;0.50;;;;;;;;;;5025613;28;20381;-82
2023/11/11 00:48:02;;;;;;;1.00;0.60;;;;;;;;;;5043669;28;20478;-82
2023/11/11 00:50:28;;;;;;;0.82;0.70;;;;;;;;;;5044678;28;20896;-82
2023/11/11 00:52:55;;;;;;;0.85;0.70;;;;;;;;;;5044202;28;20853;-82
2023/11/11 00:55:21;;;;;;;1.30;0.85;;;;;;;;;;5043387;28;20446;-82
2023/11/11 00:57:47;;;;;;;0.77;0.77;;;;;;;;;;5043854;28;20449;-81
2023/11/11 01:00:15;;;;;;;1.50;0.90;;;;;;;;;;5027367;28;20387;-82
2023/11/11 01:02:41;;;;;;;2.13;0.90;;;;;;;;;;5025985;28;20395;-83
2023/11/11 01:05:09;;;;;;;1.83;1.10;;;;;;;;;;5044044;28;20391;-82
2023/11/11 01:07:35;;;;;;;1.00;0.90;;;;;;;;;;5043479;28;20387;-83
2023/11/11 01:10:02;;;;;;;1.85;0.77;;;;;;;;;;5025707;28;20467;-82
2023/11/11 01:12:28;;;;;;;1.80;0.90;;;;;;;;;;5043173;28;20419;-82
2023/11/11 01:14:54;;;;;;;1.10;0.90;;;;;;;;;;5043412;28;20418;-82
2023/11/11 01:17:21;;;;;;;1.23;0.82;;;;;;;;;;5044003;28;20438;-82
2023/11/11 01:19:47;;;;;;;1.98;0.80;;;;;;;;;;5026445;28;20391;-82
2023/11/11 01:22:13;;;;;;;1.30;0.80;;;;;;;;;;5044058;28;20901;-82
2023/11/11 01:24:42;;;;;;;1.02;0.90;;;;;;;;;;5044503;28;20398;-83
2023/11/11 01:27:08;;;;;;;1.20;0.75;;;;;;;;;;5026508;28;20462;-82
2023/11/11 01:29:34;;;;;;;1.75;0.70;;;;;;;;;;5044341;28;20395;-82
2023/11/11 01:32:00;;;;;;;1.13;0.50;;;;;;;;;;5026193;28;20469;-82
2023/11/11 01:34:27;;;;;;;1.33;0.70;;;;;;;;;;5043683;28;20745;-82
2023/11/11 01:36:54;;;;;;;0.80;0.60;;;;;;;;;;5043875;28;20401;-83
2023/11/11 01:39:20;;;;;;;0.53;0.43;;;;;;;;;;5042828;28;20891;-82
2023/11/11 01:41:46;;;;;;;0.90;0.40;;;;;;;;;;5043784;28;20411;-82
2023/11/11 01:44:13;;;;;;;1.20;0.60;;;;;;;;;;5043228;28;20379;-81
2023/11/11 01:46:39;;;;;;;1.67;0.60;;;;;;;;;;5024700;28;20448;-82
2023/11/11 01:49:06;;;;;;;1.55;0.60;;;;;;;;;;5025250;28;20402;-82
2023/11/11 01:51:32;;;;;;;1.20;0.50;;;;;;;;;;5043968;28;20397;-82
2023/11/11 01:53:58;;;;;;;1.00;0.50;;;;;;;;;;5043397;28;20402;-82
2023/11/11 01:56:25;;;;;;;1.80;0.60;;;;;;;;;;5043396;28;20795;-82
2023/11/11 01:58:51;;;;;;;0.90;0.50;;;;;;;;;;5042931;28;20406;-82
2023/11/11 02:01:17;;;;;;;0.77;0.57;;;;;;;;;;5024996;28;20395;-81
2023/11/11 02:03:43;;;;;;;1.60;0.63;;;;;;;;;;5043080;28;20749;-82
2023/11/11 02:06:09;;;;;;;1.30;0.60;;;;;;;;;;5042071;28;20383;-82
2023/11/11 02:08:36;;;;;;;0.57;0.50;;;;;;;;;;5018885;28;20477;-81
2023/11/11 02:11:05;;;;;;;0.90;0.50;;;;;;;;;;5035577;28;20482;-80
2023/11/11 02:13:34;;;;;;;1.30;0.60;;;;;;;;;;5036919;28;20471;-81
2023/11/11 02:16:00;;;;;;;1.08;0.75;;;;;;;;;;5036378;28;20407;-82
2023/11/11 02:18:27;;;;;;;2.55;0.90;;;;;;;;;;5036765;28;20391;-82
2023/11/11 02:20:53;;;;;;;2.22;0.70;;;;;;;;;;5038024;28;20390;-82
2023/11/11 02:23:22;;;;;;;2.22;0.80;;;;;;;;;;5038757;28;20399;-81
2023/11/11 02:25:48;;;;;;;1.25;0.70;;;;;;;;;;5038365;28;20398;-82
2023/11/11 02:28:14;;;;;;;1.88;1.00;;;;;;;;;;5041048;28;20451;-81
2023/11/11 02:30:40;;;;;;;1.60;0.70;;;;;;;;;;5040833;28;20391;-82
2023/11/11 02:33:07;;;;;;;1.40;0.70;;;;;;;;;;5034896;28;20383;-82
2023/11/11 02:35:33;;;;;;;3.05;0.88;;;;;;;;;;5041474;28;20403;-82
2023/11/11 02:37:59;;;;;;;1.90;0.70;;;;;;;;;;5039729;28;20399;-82
2023/11/11 02:40:27;;;;;;;1.00;0.60;;;;;;;;;;5041825;28;20783;-81
2023/11/11 02:42:53;;;;;;;1.67;0.70;;;;;;;;;;5041712;28;20395;-83
2023/11/11 02:45:19;;;;;;;2.28;0.90;;;;;;;;;;5041405;28;20394;-82
2023/11/11 02:47:46;;;;;;;1.83;0.80;;;;;;;;;;5041581;28;20414;-82
2023/11/11 02:50:12;;;;;;;1.20;0.80;;;;;;;;;;5040356;28;20383;-82
2023/11/11 02:52:39;;;;;;;1.25;0.75;;;;;;;;;;5040497;28;20383;-82
2023/11/11 02:55:05;;;;;;;1.25;0.90;;;;;;;;;;5022661;28;20431;-82
2023/11/11 02:57:31;;;;;;;1.50;0.80;;;;;;;;;;5041226;28;20395;-82
2023/11/11 02:59:57;;;;;;;1.25;0.80;;;;;;;;;;5041096;28;20476;-81
2023/11/11 03:02:24;;;;;;;1.42;0.90;;;;;;;;;;5039236;28;20399;-82
2023/11/11 03:04:50;;;;;;;1.45;0.80;;;;;;;;;;5036962;28;20428;-82
2023/11/11 03:07:16;;;;;;;1.77;1.10;;;;;;;;;;5018858;28;20383;-81
2023/11/11 03:09:42;;;;;;;2.47;1.20;;;;;;;;;;5040105;28;20426;-82
2023/11/11 03:12:11;;;;;;;3.15;1.30;;;;;;;;;;5023222;28;20860;-82
2023/11/11 03:14:37;;;;;;;1.30;1.10;;;;;;;;;;5040590;28;20386;-81
2023/11/11 03:17:03;;;;;;;1.23;1.00;;;;;;;;;;5040480;28;20387;-82
2023/11/11 03:19:30;;;;;;;2.15;1.10;;;;;;;;;;5039129;28;20390;-82
2023/11/11 03:21:56;;;;;;;1.75;1.00;;;;;;;;;;5039986;28;20449;-82
2023/11/11 03:24:22;;;;;;;1.60;1.05;;;;;;;;;;5040205;28;20710;-82
2023/11/11 03:26:48;;;;;;;1.38;0.82;;;;;;;;;;5039834;28;20413;-82
2023/11/11 03:29:14;;;;;;;2.35;1.10;;;;;;;;;;5040287;28;20383;-82
2023/11/11 03:31:40;;;;;;;2.13;1.10;;;;;;;;;;5040385;28;20513;-82
2023/11/11 03:34:06;;;;;;;1.75;0.98;;;;;;;;;;5039865;28;20386;-82
2023/11/11 03:36:32;;;;;;;2.20;0.97;;;;;;;;;;5021867;28;20483;-82
2023/11/11 03:38:58;;;;;;;1.60;1.00;;;;;;;;;;5043679;28;20387;-82
2023/11/11 03:41:24;;;;;;;1.27;0.85;;;;;;;;;;5042931;28;20736;-83
2023/11/11 03:43:50;;;;;;;1.23;0.90;;;;;;;;;;5025645;28;20391;-82
2023/11/11 03:46:17;;;;;;;1.30;1.00;;;;;;;;;;5043268;28;20988;-82
2023/11/11 03:48:42;;;;;;;2.55;1.30;;;;;;;;;;5043375;28;20760;-82
2023/11/11 03:51:08;;;;;;;1.20;1.03;;;;;;;;;;5042487;28;20469;-82
2023/11/11 03:53:34;;;;;;;1.73;0.90;;;;;;;;;;5042718;28;20422;-82
2023/11/11 03:56:04;;;;;;;1.83;0.87;;;;;;;;;;5043491;28;20538;-82
2023/11/11 03:58:30;;;;;;;1.33;1.00;;;;;;;;;;5025435;28;20542;-82
2023/11/11 04:00:56;;;;;;;1.17;1.05;;;;;;;;;;5024543;28;20411;-82
2023/11/11 04:03:22;;;;;;;1.50;0.90;;;;;;;;;;5043076;28;20473;-82
2023/11/11 04:05:48;;;;;;;1.40;0.80;;;;;;;;;;5043641;28;20399;-81
2023/11/11 04:08:15;;;;;;;0.70;0.60;;;;;;;;;;5042685;28;20469;-82
2023/11/11 04:10:41;;;;;;;0.73;0.60;;;;;;;;;;5042042;28;20551;-82
2023/11/11 04:13:09;;;;;;;1.20;0.70;;;;;;;;;;5042311;28;20861;-82
2023/11/11 04:15:35;;;;;;;0.52;0.43;;;;;;;;;;5023839;28;20483;-82
2023/11/11 04:18:01;;;;;;;1.00;0.70;;;;;;;;;;5024062;28;20733;-82
2023/11/11 04:20:27;;;;;;;0.98;0.70;;;;;;;;;;5041960;28;20394;-82
2023/11/11 04:22:53;;;;;;;2.22;0.60;;;;;;;;;;5042524;28;20465;-82
2023/11/11 04:25:19;;;;;;;0.63;0.52;;;;;;;;;;5024516;28;20414;-82
2023/11/11 04:27:47;;;;;;;1.10;0.50;;;;;;;;;;5023664;28;20456;-81
2023/11/11 04:30:13;;;;;;;0.88;0.50;;;;;;;;;;5042598;28;20414;-82
2023/11/11 04:32:39;;;;;;;2.90;0.40;;;;;;;;;;5042650;28;20399;-82
2023/11/11 04:35:07;;;;;;;1.05;0.43;;;;;;;;;;5041453;28;20430;-81
2023/11/11 04:37:34;;;;;;;0.93;0.50;;;;;;;;;;5041571;28;20424;-83
2023/11/11 04:40:00;;;;;;;1.70;0.80;;;;;;;;;;5023949;28;20447;-83
2023/11/11 04:42:28;;;;;;;0.73;0.40;;;;;;;;;;5040916;28;20888;-83
2023/11/11 04:44:56;;;;;;;1.13;0.55;;;;;;;;;;5041952;28;20395;-83
2023/11/11 04:47:22;;;;;;;0.80;0.60;;;;;;;;;;5041780;28;20478;-82
2023/11/11 04:49:48;;;;;;;0.63;0.60;;;;;;;;;;5040120;28;20895;-83
2023/11/11 04:52:17;;;;;;;0.93;0.63;;;;;;;;;;5041384;28;20738;-83
2023/11/11 04:54:43;;;;;;;1.43;0.70;;;;;;;;;;5041631;28;20391;-83
2023/11/11 04:57:09;;;;;;;0.95;0.60;;;;;;;;;;5041162;28;20406;-83
2023/11/11 04:59:35;;;;;;;1.23;0.70;;;;;;;;;;5041216;28;20402;-83
2023/11/11 05:02:04;;;;;;;1.50;0.60;;;;;;;;;;5041418;28;20865;-82
2023/11/11 05:04:31;;;;;;;1.75;0.60;;;;;;;;;;5042338;28;20403;-82
2023/11/11 05:06:58;;;;;;;2.20;0.70;;;;;;;;;;5042467;28;20736;-82
2023/11/11 05:09:24;;;;;;;2.38;0.75;;;;;;;;;;5041988;28;20854;-83
2023/11/11 05:11:50;;;;;;;1.00;0.60;;;;;;;;;;5041976;28;20425;-83
2023/11/11 05:14:18;;;;;;;0.65;0.60;;;;;;;;;;5041417;28;20529;-82
2023/11/11 05:16:50;;;;;;;1.77;0.70;;;;;;;;;;5041466;28;20414;-83
2023/11/11 05:19:17;;;;;;;1.67;0.70;;;;;;;;;;5041790;28;20383;-83
2023/11/11 05:21:43;;;;;;;1.70;0.60;;;;;;;;;;5041177;28;20388;-83
2023/11/11 05:24:10;;;;;;;0.82;0.60;;;;;;;;;;5041422;28;20441;-82
2023/11/11 05:26:38;;;;;;;0.90;0.70;;;;;;;;;;5040772;28;20383;-83
2023/11/11 05:29:04;;;;;;;2.13;0.90;;;;;;;;;;5037743;28;20391;-82
2023/11/11 05:31:31;;;;;;;1.50;0.90;;;;;;;;;;5036745;28;20390;-82
2023/11/11 05:33:57;;;;;;;0.77;0.77;;;;;;;;;;5036268;28;20429;-82
2023/11/11 05:36:24;;;;;;;2.30;1.00;;;;;;;;;;5019014;28;20406;-82
2023/11/11 05:38:50;;;;;;;2.50;1.10;;;;;;;;;;5036794;28;20390;-83
2023/11/11 05:41:18;;;;;;;2.07;0.80;;;;;;;;;;5036751;28;20713;-82
2023/11/11 05:43:44;;;;;;;1.42;0.93;;;;;;;;;;5036914;28;20394;-82
2023/11/11 05:46:11;;;;;;;2.72;1.10;;;;;;;;;;5037510;28;20790;-82
2023/11/11 05:48:40;;;;;;;1.33;1.10;;;;;;;;;;5038123;28;20437;-83
2023/11/11 05:51:09;;;;;;;2.78;1.40;;;;;;;;;;5038319;28;20375;-82
2023/11/11 05:53:35;;;;;;;1.98;1.30;;;;;;;;;;5038436;28;20798;-83
2023/11/11 05:56:02;;;;;;;1.77;1.20;;;;;;;;;;5038126;28;20441;-83
2023/11/11 05:58:28;;;;;;;1.77;1.27;;;;;;;;;;5032731;28;20479;-83
2023/11/11 06:00:54;;;;;;;2.25;1.67;;;;;;;;;;5037665;28;20837;-83
2023/11/11 06:03:20;;;;;;;1.80;1.00;;;;;;;;;;5038706;28;20391;-82
2023/11/11 06:05:46;;;;;;;2.10;1.13;;;;;;;;;;5038834;28;20457;-82
2023/11/11 06:08:12;;;;;;;2.10;1.27;;;;;;;;;;5038450;28;20844;-82
2023/11/11 06:10:41;;;;;;;1.92;1.30;;;;;;;;;;5039115;28;20772;-83
2023/11/11 06:13:07;;;;;;;1.65;1.00;;;;;;;;;;5039855;28;20766;-83
2023/11/11 06:15:36;;;;;;;2.17;1.03;;;;;;;;;;5039431;28;20526;-82
2023/11/11 06:18:03;;;;;;;2.97;1.33;;;;;;;;;;5020251;28;20866;-83
2023/11/11 06:20:33;;;;;;;2.70;1.40;;;;;;;;;;5021899;28;20380;-83
2023/11/11 06:22:59;;;;;;;2.97;1.45;;;;;;;;;;5039892;28;20394;-82
2023/11/11 06:25:25;;;;;;;2.00;1.50;;;;;;;;;;5022536;28;20890;-83
2023/11/11 06:27:52;;;;;;;2.10;1.45;;;;;;;;;;5040107;28;20838;-83
2023/11/11 06:30:19;;;;;;;3.30;1.48;;;;;;;;;;5041100;28;20383;-83
2023/11/11 06:32:45;;;;;;;3.17;1.75;;;;;;;;;;5040842;28;20390;-82
2023/11/11 06:35:12;;;;;;;4.03;1.85;;;;;;;;;;5039156;28;20411;-83
2023/11/11 06:37:40;;;;;;;4.05;1.58;;;;;;;;;;5040494;28;20470;-83
2023/11/11 06:40:07;;;;;;;4.10;1.70;;;;;;;;;;5039979;28;20383;-83
2023/11/11 06:42:34;;;;;;;3.22;1.95;;;;;;;;;;5022602;28;20402;-83
2023/11/11 06:45:00;;;;;;;3.42;1.90;;;;;;;;;;5039741;28;20740;-83
2023/11/11 06:47:26;;;;;;;2.10;1.70;;;;;;;;;;5022408;28;20394;-83
2023/11/11 06:49:52;;;;;;;3.30;1.60;;;;;;;;;;5040523;28;20382;-82
2023/11/11 06:52:19;;;;;;;3.08;1.77;;;;;;;;;;5040186;28;20390;-83
2023/11/11 06:54:46;;;;;;;2.72;1.83;;;;;;;;;;5042955;28;20391;-84
2023/11/11 06:57:16;;;;;;;3.00;1.83;;;;;;;;;;5043740;28;20441;-83
2023/11/11 06:59:42;;;;;;;5.22;2.05;;;;;;;;;;5044399;28;20952;-83
2023/11/11 07:02:12;;;;;;;3.95;2.15;;;;;;;;;;5025068;28;20427;-83
2023/11/11 07:04:40;;;;;;;3.63;2.33;;;;;;;;;;5043907;28;20458;-83
2023/11/11 07:07:07;;;;;;;3.75;1.88;;;;;;;;;;5043957;28;20793;-84
2023/11/11 07:09:34;;;;;;;3.50;2.10;;;;;;;;;;5043014;28;20399;-83
2023/11/11 07:12:00;;;;;;;3.97;2.20;;;;;;;;;;5043301;28;20424;-84
2023/11/11 07:14:26;;;;;;;3.95;2.20;;;;;;;;;;5028971;28;20383;-82
2023/11/11 07:16:53;;;;;;;3.00;1.70;;;;;;;;;;5044807;28;20419;-84
2023/11/11 07:19:19;;;;;;;4.20;2.50;;;;;;;;;;5044686;28;20406;-83
2023/11/11 07:21:45;;;;;;;4.50;1.60;;;;;;;;;;5025189;28;20378;-82
2023/11/11 07:24:11;;;;;;;3.58;1.83;;;;;;;;;;5024663;28;20899;-82
2023/11/11 07:26:38;;;;;;;3.13;2.30;;;;;;;;;;5038960;28;20391;-82
2023/11/11 07:29:03;;;;;;;2.38;1.73;;;;;;;;;;5039385;28;20383;-83
2023/11/11 07:31:29;;;;;;;3.97;1.73;;;;;;;;;;5039425;28;20390;-83
2023/11/11 07:33:56;;;;;;;3.35;1.98;;;;;;;;;;5039501;28;20402;-82
2023/11/11 07:36:24;;;;;;;2.92;1.80;;;;;;;;;;5039104;28;20510;-82
2023/11/11 07:38:50;;;;;;;4.97;1.95;;;;;;;;;;5040119;28;20832;-83
2023/11/11 07:41:21;;;;;;;4.22;1.88;;;;;;;;;;5039452;28;20387;-82
2023/11/11 07:43:48;;;;;;;3.55;1.75;;;;;;;;;;5020985;28;20383;-82
2023/11/11 07:46:19;;;;;;;3.70;1.77;;;;;;;;;;5027686;28;20398;-83
2023/11/11 07:48:45;;;;;;;2.58;1.98;;;;;;;;;;5038306;28;20445;-82
2023/11/11 07:51:11;;;;;;;3.75;1.92;;;;;;;;;;5021496;28;20454;-82
2023/11/11 07:53:37;;;;;;;3.20;1.75;;;;;;;;;;5038260;28;20434;-82
2023/11/11 07:56:05;;;;;;;4.25;1.90;;;;;;;;;;5038769;28;20946;-82
2023/11/11 07:58:31;;;;;;;4.15;1.60;;;;;;;;;;5020297;28;20741;-82
2023/11/11 08:00:58;;;;;;;2.80;1.85;;;;;;;;;;5038147;28;20422;-83
2023/11/11 08:03:27;;;;;;;4.10;2.10;;;;;;;;;;5038077;28;20438;-82
2023/11/11 08:05:54;;;;;;;3.45;1.70;;;;;;;;;;5025326;28;20371;-82
2023/11/11 08:08:22;;;;;;;4.10;1.60;;;;;;;;;;5020551;28;20877;-83
2023/11/11 08:10:50;;;;;;;2.28;1.50;;;;;;;;;;5026750;28;20493;-82
2023/11/11 08:13:16;;;;;;;4.72;2.40;;;;;;;;;;5040421;28;20396;-83
2023/11/11 08:15:42;;;;;;;5.28;1.98;;;;;;;;;;5020561;28;20403;-82
2023/11/11 08:18:09;;;;;;;2.33;2.00;;;;;;;;;;5042619;28;20429;-83
2023/11/11 08:20:35;;;;;;;3.40;1.58;;;;;;;;;;5024207;28;20387;-83
2023/11/11 08:23:02;;;;;;;2.67;1.50;;;;;;;;;;5025537;28;20520;-83
2023/11/11 08:25:29;;;;;;;2.85;1.35;;;;;;;;;;5027795;28;20384;-83
2023/11/11 08:27:56;;;;;;;2.90;1.40;;;;;;;;;;5043786;28;20395;-81
2023/11/11 08:30:22;;;;;;;3.70;1.60;;;;;;;;;;5042287;28;20386;-83
2023/11/11 08:32:48;;;;;;;2.90;1.30;;;;;;;;;;5029700;28;20402;-84
2023/11/11 08:35:15;;;;;;;2.15;1.27;;;;;;;;;;5027730;28;20411;-82
2023/11/11 08:37:45;;;;;;;2.83;1.10;;;;;;;;;;5025287;28;20435;-83
2023/11/11 08:40:12;;;;;;;3.05;1.40;;;;;;;;;;5044406;28;20923;-84
2023/11/11 08:42:42;;;;;;;3.13;1.37;;;;;;;;;;5045397;28;20391;-81
2023/11/11 08:45:09;;;;;;;2.03;0.95;;;;;;;;;;5026166;28;20998;-83
2023/11/11 08:47:35;;;;;;;2.28;1.00;;;;;;;;;;5026552;28;20421;-82
2023/11/11 08:50:05;;;;;;;2.40;0.75;;;;;;;;;;5042815;28;20395;-83
2023/11/11 08:52:33;;;;;;;2.00;1.20;;;;;;;;;;5026013;28;20414;-83
2023/11/11 08:55:00;;;;;;;2.17;1.05;;;;;;;;;;5027966;28;20689;-84
2023/11/11 08:57:26;;;;;;;1.58;1.00;;;;;;;;;;5045955;28;20442;-83
2023/11/11 08:59:52;;;;;;;2.08;0.93;;;;;;;;;;5051869;28;20446;-84
2023/11/11 09:02:19;;;;;;;1.60;0.82;;;;;;;;;;5028391;28;20437;-83
2023/11/11 09:04:46;;;;;;;1.73;1.10;;;;;;;;;;5046157;28;20386;-83
2023/11/11 09:07:12;;;;;;;3.13;1.20;;;;;;;;;;5046519;28;20399;-83
2023/11/11 09:09:38;;;;;;;2.72;1.10;;;;;;;;;;5046172;28;20453;-84
2023/11/11 09:12:07;;;;;;;2.03;1.35;;;;;;;;;;5045187;28;20383;-85
2023/11/11 09:14:33;;;;;;;2.20;1.50;;;;;;;;;;5028151;28;20386;-82
2023/11/11 09:17:03;;;;;;;2.05;1.20;;;;;;;;;;5027580;28;20562;-84
2023/11/11 09:19:31;;;;;;;2.42;1.30;;;;;;;;;;5041713;28;20383;-83
2023/11/11 09:21:57;;;;;;;3.43;1.50;;;;;;;;;;5027501;28;20417;-83
2023/11/11 09:24:23;;;;;;;3.90;1.60;;;;;;;;;;5044467;28;20509;-83
2023/11/11 09:26:50;;;;;;;1.58;1.48;;;;;;;;;;5045835;28;20387;-82
2023/11/11 09:29:17;;;;;;;2.85;1.40;;;;;;;;;;5028022;28;20387;-83
2023/11/11 09:31:43;;;;;;;2.17;1.50;;;;;;;;;;5045760;28;20950;-83
2023/11/11 09:34:13;;;;;;;4.05;1.33;;;;;;;;;;5043902;28;20500;-82
2023/11/11 09:36:39;;;;;;;2.50;1.30;;;;;;;;;;5026488;28;20419;-84
2023/11/11 09:39:10;;;;;;;3.67;1.45;;;;;;;;;;5044860;28;20411;-83
2023/11/11 09:41:36;;;;;;;3.65;1.60;;;;;;;;;;5031569;28;20381;-84
2023/11/11 09:44:03;;;;;;;2.83;1.40;;;;;;;;;;5028472;28;20390;-84
2023/11/11 09:46:33;;;;;;;3.60;1.40;;;;;;;;;;5045880;28;20451;-83
2023/11/11 09:49:00;;;;;;;3.33;1.60;;;;;;;;;;5046568;28;20880;-84
2023/11/11 09:51:30;;;;;;;1.63;1.33;;;;;;;;;;5045749;28;20383;-84
2023/11/11 09:53:58;;;;;;;2.38;1.30;;;;;;;;;;5044523;28;20760;-84
2023/11/11 09:56:27;;;;;;;3.13;1.25;;;;;;;;;;5045268;28;20411;-84
2023/11/11 09:58:56;;;;;;;2.13;1.20;;;;;;;;;;5045741;28;20391;-84
2023/11/11 10:01:22;;;;;;;1.92;1.30;;;;;;;;;;5025437;28;20391;-83
2023/11/11 10:03:49;;;;;;;2.80;1.20;;;;;;;;;;5044275;28;20387;-83
2023/11/11 10:06:15;;;;;;;3.85;1.30;;;;;;;;;;5045224;28;20865;-83
2023/11/11 10:08:43;;;;;;;2.38;1.50;;;;;;;;;;5044539;28;20383;-84
2023/11/11 10:11:10;;;;;;;2.30;1.10;;;;;;;;;;5045195;28;20385;-85
2023/11/11 10:13:36;;;;;;;2.58;1.25;;;;;;;;;;5046356;28;20407;-83
2023/11/11 10:16:15;;;;;;;2.67;0.95;;;;;;;;;;5046994;28;20785;-85
2023/11/11 10:18:41;;;;;;;2.80;1.20;;;;;;;;;;5029460;28;20792;-84
2023/11/11 10:21:07;;;;;;;2.20;0.98;;;;;;;;;;5046399;28;20418;-84
2023/11/11 10:23:34;;;;;;;1.95;1.00;;;;;;;;;;5044533;28;20391;-84
2023/11/11 10:26:03;;;;;;;1.35;0.98;;;;;;;;;;5044017;28;20406;-84
2023/11/11 10:28:33;;;;;;;1.80;1.20;;;;;;;;;;5027103;28;20411;-84
2023/11/11 10:31:09;;;;;;;2.30;1.10;;;;;;;;;;5027593;28;20506;-84
2023/11/11 10:33:35;;;;;;;1.95;1.30;;;;;;;;;;5046163;28;20470;-83
2023/11/11 10:36:02;;;;;;;2.42;0.90;;;;;;;;;;5027074;28;20470;-83
2023/11/11 10:38:28;;;;;;;1.55;0.82;;;;;;;;;;5046356;28;21004;-83
2023/11/11 10:40:54;;;;;;;2.10;0.90;;;;;;;;;;5045256;28;20391;-83
2023/11/11 10:43:21;;;;;;;1.42;0.80;;;;;;;;;;5045957;28;20394;-83
2023/11/11 10:45:48;;;;;;;1.90;1.20;;;;;;;;;;5045632;28;20379;-83
2023/11/11 10:48:15;;;;;;;1.85;1.00;;;;;;;;;;5043733;28;20744;-83
2023/11/11 10:50:44;;;;;;;1.70;0.90;;;;;;;;;;5045668;28;20383;-82
2023/11/11 10:53:11;;;;;;;2.70;1.60;;;;;;;;;;5046043;28;20383;-85
2023/11/11 10:55:38;;;;;;;3.55;1.10;;;;;;;;;;5045612;28;20446;-84
2023/11/11 10:58:10;;;;;;;1.85;0.80;;;;;;;;;;5027562;28;20989;-85
2023/11/11 11:00:37;;;;;;;1.27;0.63;;;;;;;;;;5028518;28;20384;-83
2023/11/11 11:03:03;;;;;;;1.30;0.70;;;;;;;;;;5046548;28;20403;-83
2023/11/11 11:05:33;;;;;;;1.45;0.73;;;;;;;;;;5042940;28;20422;-83
2023/11/11 11:08:06;;;;;;;1.20;0.68;;;;;;;;;;5022207;28;20399;-82
2023/11/11 11:10:39;;;;;;;1.98;1.10;;;;;;;;;;5039196;28;20807;-83
2023/11/11 11:13:08;;;;;;;1.10;0.90;;;;;;;;;;5039698;28;20383;-82
2023/11/11 11:15:40;;;;;;;1.48;0.90;;;;;;;;;;5022894;28;20411;-82
2023/11/11 11:18:10;;;;;;;3.13;0.90;;;;;;;;;;5041227;28;20395;-82
2023/11/11 11:20:37;;;;;;;0.95;0.80;;;;;;;;;;5040794;28;20407;-83
2023/11/11 11:23:10;;;;;;;1.15;0.80;;;;;;;;;;5038810;28;20397;-82
2023/11/11 11:25:48;;;;;;;0.90;0.73;;;;;;;;;;5037126;28;20418;-83
2023/11/11 11:28:14;;;;;;;1.77;0.70;;;;;;;;;;5020532;28;20394;-84
2023/11/11 11:30:53;;;;;;;2.00;0.73;;;;;;;;;;5038372;28;20387;-83
2023/11/11 11:33:20;;;;;;;0.87;0.53;;;;;;;;;;5035604;28;20461;-83
2023/11/11 11:35:50;;;;;;;2.53;1.00;;;;;;;;;;5036946;28;20403;-82
2023/11/11 11:38:35;;;;;;;2.08;0.90;;;;;;;;;;5036528;28;20869;-83
2023/11/11 11:41:02;;;;;;;2.17;1.08;;;;;;;;;;5036941;28;20525;-82
2023/11/11 11:43:30;;;;;;;1.20;0.80;;;;;;;;;;5017157;28;20396;-83
2023/11/11 11:45:59;;;;;;;1.50;0.90;;;;;;;;;;5036494;28;20450;-82
2023/11/11 11:48:29;;;;;;;1.17;0.80;;;;;;;;;;5017796;28;20401;-82
2023/11/11 11:51:10;;;;;;;1.93;1.00;;;;;;;;;;5035566;28;20430;-83
2023/11/11 11:53:36;;;;;;;1.50;0.80;;;;;;;;;;5034731;28;20730;-82
2023/11/11 11:56:03;;;;;;;1.35;0.90;;;;;;;;;;5036266;28;20482;-82
2023/11/11 11:58:43;;;;;;;2.47;1.25;;;;;;;;;;5035822;28;20386;-81
2023/11/11 12:01:09;;;;;;;2.70;1.30;;;;;;;;;;5038404;28;20895;-82
2023/11/11 12:03:35;;;;;;;1.48;1.13;;;;;;;;;;5037965;28;20873;-81
2023/11/11 12:06:03;;;;;;;1.60;1.13;;;;;;;;;;5039006;28;20539;-82
2023/11/11 12:08:29;;;;;;;2.83;1.13;;;;;;;;;;5038369;28;20853;-81
2023/11/11 12:10:56;;;;;;;2.70;1.00;;;;;;;;;;5040669;28;20398;-82
2023/11/11 12:13:22;;;;;;;1.40;1.00;;;;;;;;;;5041792;28;20394;-81
2023/11/11 12:15:51;;;;;;;2.13;1.00;;;;;;;;;;5039810;28;20419;-82
2023/11/11 12:18:19;;;;;;;2.47;1.10;;;;;;;;;;5028993;28;20412;-82
2023/11/11 12:20:47;;;;;;;0.88;0.50;;;;;;;;;;5020227;28;20402;-82
2023/11/11 12:23:14;;;;;;;1.13;0.70;;;;;;;;;;5038319;28;20745;-82
2023/11/11 12:25:41;;;;;;;2.35;0.95;;;;;;;;;;5039809;28;20729;-82
2023/11/11 12:28:07;;;;;;;1.60;0.70;;;;;;;;;;5039147;28;20410;-81
2023/11/11 12:30:33;;;;;;;2.30;0.50;;;;;;;;;;5041254;28;20412;-81
2023/11/11 12:33:03;;;;;;;1.02;0.70;;;;;;;;;;5044791;28;20383;-82
2023/11/11 12:35:34;;;;;;;1.43;0.70;;;;;;;;;;5061728;28;20436;-81
2023/11/11 12:38:18;;;;;;;0.82;0.60;;;;;;;;;;5045302;28;20423;-81
2023/11/11 12:40:48;;;;;;;0.63;0.50;;;;;;;;;;5053367;28;20496;-82
2023/11/11 12:43:15;;;;;;;0.60;0.50;;;;;;;;;;5027307;28;20753;-81
2023/11/11 12:45:48;;;;;;;1.13;0.50;;;;;;;;;;5044264;28;20387;-83
2023/11/11 12:48:16;;;;;;;3.05;0.50;;;;;;;;;;5027468;28;20466;-82
2023/11/11 12:50:43;;;;;;;0.95;0.50;;;;;;;;;;5044737;28;20387;-83
2023/11/11 12:53:11;;;;;;;0.75;0.60;;;;;;;;;;5044254;28;20395;-84
2023/11/11 12:55:40;;;;;;;1.65;0.95;;;;;;;;;;5037047;28;20464;-81
2023/11/11 12:58:22;;;;;;;1.60;1.00;;;;;;;;;;5023748;28;20392;-82
2023/11/11 13:00:57;;;;;;;2.40;0.80;;;;;;;;;;5024291;28;20380;-83
2023/11/11 13:03:27;;;;;;;1.15;0.80;;;;;;;;;;5025287;28;20435;-84
2023/11/11 13:05:55;;;;;;;1.95;1.48;;;;;;;;;;5026015;28;20885;-83
2023/11/11 13:08:22;;;;;;;2.17;1.40;;;;;;;;;;5043992;28;20387;-84
2023/11/11 13:10:52;;;;;;;3.20;1.30;;;;;;;;;;5024654;28;20383;-84
2023/11/11 13:13:18;;;;;;;1.27;0.90;;;;;;;;;;5040906;28;20375;-84
2023/11/11 13:15:44;;;;;;;1.33;1.00;;;;;;;;;;5038794;28;20882;-84
2023/11/11 13:18:10;;;;;;;1.90;0.90;;;;;;;;;;5027375;28;20391;-85
2023/11/11 13:20:37;;;;;;;2.28;1.00;;;;;;;;;;5027319;28;20395;-84
2023/11/11 13:23:03;;;;;;;1.07;0.80;;;;;;;;;;5043198;28;20387;-81
2023/11/11 13:25:29;;;;;;;1.70;0.75;;;;;;;;;;5044140;28;20748;-82
2023/11/11 13:27:55;;;;;;;1.57;0.53;;;;;;;;;;5042451;28;20483;-83
2023/11/11 13:30:22;;;;;;;0.77;0.60;;;;;;;;;;5043765;28;20409;-83
2023/11/11 13:32:48;;;;;;;1.67;0.90;;;;;;;;;;5040806;28;20383;-83
2023/11/11 13:35:18;;;;;;;1.10;0.80;;;;;;;;;;5041821;28;20473;-82
2023/11/11 13:37:47;;;;;;;2.40;0.93;;;;;;;;;;5041718;28;20461;-81
2023/11/11 13:40:35;;;;;;;1.67;0.80;;;;;;;;;;5042031;28;20402;-83
2023/11/11 13:42:59;;;;;;;1.30;0.90;;;;;;;;;;5040579;28;20884;-82
2023/11/11 13:45:26;;;;;;;1.30;0.80;;;;;;;;;;5041155;28;20386;-83
2023/11/11 13:47:52;;;;;;;1.83;0.90;;;;;;;;;;5040715;28;20885;-83
2023/11/11 13:50:21;;;;;;;1.30;0.70;;;;;;;;;;5041339;28;20387;-82
2023/11/11 13:52:48;;;;;;;2.15;0.90;;;;;;;;;;5044265;28;20383;-82
2023/11/11 13:55:17;;;;;;;1.10;0.80;;;;;;;;;;5045125;28;20877;-82
2023/11/11 13:57:45;;;;;;;1.13;0.80;;;;;;;;;;5047187;28;20473;-82
2023/11/11 14:00:20;;;;;;;1.77;0.70;;;;;;;;;;5027374;28;20869;-82
2023/11/11 14:02:46;;;;;;;1.37;0.90;;;;;;;;;;5044286;28;20387;-83
2023/11/11 14:05:12;;;;;;;1.38;1.10;;;;;;;;;;5044162;28;20395;-84
2023/11/11 14:07:38;;;;;;;1.75;1.25;;;;;;;;;;5043041;28;20421;-83
2023/11/11 14:10:07;;;;;;;2.47;1.88;;;;;;;;;;5044351;28;20391;-84
2023/11/11 14:12:36;;;;;;;2.55;1.50;;;;;;;;;;5023331;28;20920;-80
2023/11/11 14:15:02;;;;;;;1.90;1.00;;;;;;;;;;5024565;28;20450;-82
2023/11/11 14:17:30;;;;;;;1.92;1.20;;;;;;;;;;5040823;28;20425;-81
2023/11/11 14:19:56;;;;;;;2.67;1.53;;;;;;;;;;5038154;28;20806;-82
2023/11/11 14:22:27;;;;;;;3.13;1.50;;;;;;;;;;5036018;28;20394;-82
2023/11/11 14:24:53;;;;;;;1.33;1.13;;;;;;;;;;5035596;28;20383;-81
2023/11/11 14:27:19;;;;;;;2.55;0.90;;;;;;;;;;5034851;28;20391;-80
2023/11/11 14:29:46;;;;;;;1.25;0.82;;;;;;;;;;5035503;28;20390;-81
2023/11/11 14:32:12;;;;;;;1.50;1.30;;;;;;;;;;5034279;28;20406;-81
2023/11/11 14:34:38;;;;;;;1.30;0.90;;;;;;;;;;5033697;28;20391;-80
2023/11/11 14:37:08;;;;;;;1.85;1.27;;;;;;;;;;5034055;28;20831;-81
2023/11/11 14:39:34;;;;;;;2.30;1.77;;;;;;;;;;5035346;28;20909;-81
2023/11/11 14:42:02;;;;;;;1.60;1.13;;;;;;;;;;5034313;28;20390;-81
2023/11/11 14:44:28;;;;;;;1.50;1.10;;;;;;;;;;5034830;28;20410;-83